Time;durP1;ratioP1;P1;durP2;ratioP2;P2;SDS_P1;SDS_P2;PMS_P1;PMS_P2;Temp;Humidity;BMP_temperature;BMP_pressure;BME280_temperature;BME280_humidity;BME280_pressure;Samples;Min_cycle;Max_cycle;Signal;HPM_P1;HPM_P2
2021/09/07 00:01:32;;;;;;;;;12.67;9.33;;;;;23.36;46.69;101887.31;5029105;28;44791;-90
2021/09/07 00:03:58;;;;;;;;;10.00;10.00;;;;;23.44;46.75;101905.94;5012068;28;45341;-90
2021/09/07 00:06:23;;;;;;;;;13.00;13.00;;;;;23.33;46.96;101892.75;5047582;28;45363;-96
2021/09/07 00:08:49;;;;;;;;;13.33;12.00;;;;;23.37;47.12;101897.16;5048240;28;46204;-92
2021/09/07 00:11:15;;;;;;;;;14.00;13.00;;;;;23.37;46.86;101891.78;5042326;28;45371;-93
2021/09/07 00:13:41;;;;;;;;;13.33;11.33;;;;;23.34;47.14;101889.16;5042200;28;45394;-94
2021/09/07 00:16:07;;;;;;;;;10.33;10.00;;;;;23.31;46.54;101884.72;5041827;28;45374;-90
2021/09/07 00:18:32;;;;;;;;;11.67;10.00;;;;;23.33;46.59;101892.75;5041085;28;45411;-95
2021/09/07 00:20:59;;;;;;;;;15.00;14.00;;;;;23.25;46.89;101890.19;5022456;28;45359;-95
2021/09/07 00:23:24;;;;;;;;;13.67;12.00;;;;;23.28;46.83;101894.63;5041390;28;45386;-90
2021/09/07 00:25:49;;;;;;;;;13.00;11.33;;;;;23.25;46.74;101884.81;5042467;28;45232;-96
2021/09/07 00:28:15;;;;;;;;;13.00;13.00;;;;;23.23;46.60;101890.22;5043760;28;46116;-96
2021/09/07 00:30:40;;;;;;;;;14.33;12.00;;;;;23.18;47.40;101877.81;5047928;28;45344;-94
2021/09/07 00:33:08;;;;;;;;;15.00;13.00;;;;;23.22;46.43;101887.56;5041592;28;45416;-94
2021/09/07 00:35:34;;;;;;;;;10.00;10.00;;;;;23.25;46.62;101893.75;5044573;28;45519;-94
2021/09/07 00:38:00;;;;;;;;;15.00;11.67;;;;;23.13;47.04;101876.09;5050640;28;46033;-91
2021/09/07 00:40:26;;;;;;;;;14.00;12.00;;;;;23.15;47.44;101878.75;5060910;28;45354;-87
2021/09/07 00:42:52;;;;;;;;;13.00;11.00;;;;;23.19;47.12;101888.50;5041623;28;45245;-86
2021/09/07 00:45:17;;;;;;;;;11.33;11.33;;;;;23.19;47.03;101891.19;5039778;28;45293;-88
2021/09/07 00:47:43;;;;;;;;;19.00;14.00;;;;;23.10;47.31;101869.88;5063818;28;45184;-87
2021/09/07 00:50:10;;;;;;;;;14.33;14.33;;;;;23.16;47.13;101883.19;5062204;28;44741;-92
2021/09/07 00:52:37;;;;;;;;;15.00;13.33;;;;;23.04;47.19;101860.16;5056515;28;45214;-96
2021/09/07 00:55:03;;;;;;;;;13.67;11.33;;;;;23.14;47.43;101880.53;5058651;28;44788;-94
2021/09/07 00:57:31;;;;;;;;;17.67;15.33;;;;;23.11;47.20;101877.03;5046068;28;46504;-84
2021/09/07 00:59:57;;;;;;;;;12.67;12.00;;;;;23.11;47.23;101872.56;5065660;28;45288;-88
2021/09/07 01:02:23;;;;;;;;;14.00;13.00;;;;;23.08;47.80;101871.69;5065906;28;44721;-85
2021/09/07 01:04:49;;;;;;;;;12.67;11.67;;;;;23.01;47.46;101854.84;5064092;28;44704;-87
2021/09/07 01:07:14;;;;;;;;;15.67;13.00;;;;;22.97;47.29;101843.28;5066032;28;45631;-84
2021/09/07 01:09:40;;;;;;;;;14.67;11.67;;;;;22.96;47.93;101838.84;5065794;28;44749;-86
2021/09/07 01:12:07;;;;;;;;;12.33;12.00;;;;;23.04;47.79;101853.91;5047977;28;44775;-86
2021/09/07 01:14:36;;;;;;;;;15.33;13.33;;;;;23.01;47.84;101850.34;5067395;28;44747;-89
2021/09/07 01:17:01;;;;;;;;;14.00;13.33;;;;;22.94;48.11;101838.00;5067341;28;45217;-92
2021/09/07 01:19:28;;;;;;;;;14.00;12.67;;;;;22.92;47.66;101834.44;5067404;28;44791;-90
2021/09/07 01:21:54;;;;;;;;;16.00;12.67;;;;;22.98;47.84;101847.75;5066998;28;44784;-90
2021/09/07 01:24:26;;;;;;;;;12.33;12.33;;;;;22.97;47.52;101843.28;5049901;28;44682;-87
2021/09/07 01:26:52;;;;;;;;;13.00;13.00;;;;;22.89;47.77;101835.38;5049505;28;45576;-89
2021/09/07 01:29:19;;;;;;;;;15.33;15.33;;;;;22.90;47.44;101837.16;5049259;28;44703;-88
2021/09/07 01:31:44;;;;;;;;;12.00;10.33;;;;;22.88;48.22;101839.00;5049573;28;44785;-88
2021/09/07 01:34:22;;;;;;;;;14.33;12.00;;;;;22.82;47.95;101822.13;5068051;28;44816;-91
2021/09/07 01:36:48;;;;;;;;;11.67;10.33;;;;;22.90;47.62;101836.28;5049387;28;47202;-86
2021/09/07 01:39:13;;;;;;;;;14.33;12.67;;;;;22.82;47.71;101820.31;5065524;28;44840;-93
2021/09/07 01:41:40;;;;;;;;;12.33;11.00;;;;;22.83;48.37;101830.13;5059664;28;44822;-96
2021/09/07 01:44:05;;;;;;;;;12.67;12.67;;;;;22.85;47.71;101828.31;5054573;28;45391;-94
2021/09/07 01:46:31;;;;;;;;;13.33;12.33;;;;;22.79;47.66;101815.00;5062961;28;45373;-90
2021/09/07 01:48:56;;;;;;;;;14.00;11.67;;;;;22.83;47.71;101831.91;5059987;28;45277;-89
2021/09/07 01:51:23;;;;;;;;;14.00;11.67;;;;;22.82;47.74;101825.69;5043998;28;45164;-96
2021/09/07 01:53:49;;;;;;;;;15.00;13.33;;;;;22.84;48.39;101834.59;5051884;28;45285;-96
2021/09/07 01:56:15;;;;;;;;;12.00;12.00;;;;;22.81;48.02;101839.09;5052396;28;45646;-94
2021/09/07 01:58:40;;;;;;;;;13.00;13.00;;;;;22.77;48.05;101830.22;5048937;28;45236;-95
2021/09/07 02:01:06;;;;;;;;;12.33;12.33;;;;;22.73;48.00;101826.72;5048246;28;45333;-94
2021/09/07 02:03:32;;;;;;;;;18.67;15.00;;;;;22.79;48.19;101834.66;5030325;28;44758;-93
2021/09/07 02:05:57;;;;;;;;;15.00;14.00;;;;;22.79;47.95;101837.34;5048760;28;45375;-96
2021/09/07 02:08:23;;;;;;;;;16.67;13.67;;;;;22.74;48.59;101840.97;5046333;28;45169;-95
2021/09/07 02:10:48;;;;;;;;;21.33;15.67;;;;;22.70;48.38;101826.75;5045881;28;45233;-96
2021/09/07 02:13:14;;;;;;;;;12.67;12.33;;;;;22.67;48.67;101834.84;5047842;28;45306;-95
2021/09/07 02:15:39;;;;;;;;;13.67;13.33;;;;;22.66;48.54;101833.06;5047984;28;46322;-94
2021/09/07 02:18:05;;;;;;;;;15.00;12.33;;;;;22.66;48.23;101819.69;5035143;28;45471;-95
2021/09/07 02:20:30;;;;;;;;;15.67;15.33;;;;;22.66;48.44;101825.94;5035088;28;45495;-96
2021/09/07 02:22:56;;;;;;;;;12.00;12.00;;;;;22.69;48.25;101827.69;5054237;28;45693;-95
2021/09/07 02:25:21;;;;;;;;;16.00;14.00;;;;;22.66;48.52;101825.03;5053367;28;45902;-93
2021/09/07 02:27:48;;;;;;;;;15.00;13.00;;;;;22.63;49.04;101827.75;5018835;28;45349;-95
2021/09/07 02:30:14;;;;;;;;;15.67;13.67;;;;;22.63;48.35;101827.75;5049533;28;45257;-96
2021/09/07 02:32:40;;;;;;;;;14.00;12.67;;;;;22.59;48.75;101816.16;5033742;28;45288;-96
2021/09/07 02:35:07;;;;;;;;;14.00;12.00;;;;;22.56;48.45;101813.56;5052674;28;45289;-96
2021/09/07 02:37:32;;;;;;;;;17.33;15.00;;;;;22.59;48.87;101818.84;5054928;28;45245;-93
2021/09/07 02:39:58;;;;;;;;;16.67;13.00;;;;;22.61;48.98;101816.16;5055408;28;44874;-94
2021/09/07 02:42:23;;;;;;;;;16.00;13.33;;;;;22.59;49.35;101816.16;5052351;28;45404;-95
2021/09/07 02:44:49;;;;;;;;;16.67;12.33;;;;;22.53;48.69;101805.56;5052919;28;45143;-88
2021/09/07 02:47:14;;;;;;;;;16.33;15.33;;;;;22.48;49.02;101797.63;5053505;28;45314;-90
2021/09/07 02:49:40;;;;;;;;;15.33;14.00;;;;;22.45;48.84;101797.66;5041324;28;44828;-91
2021/09/07 02:52:06;;;;;;;;;18.67;15.00;;;;;22.52;48.98;101811.84;5010521;28;45323;-87
2021/09/07 02:54:31;;;;;;;;;15.33;14.00;;;;;22.50;49.33;101806.50;5042599;28;45487;-89
2021/09/07 02:56:58;;;;;;;;;13.00;13.00;;;;;22.49;49.32;101803.81;5045287;28;45171;-88
2021/09/07 02:59:23;;;;;;;;;14.67;14.67;;;;;22.40;49.30;101789.66;5035329;28;44758;-87
2021/09/07 03:01:49;;;;;;;;;19.00;14.33;;;;;22.47;49.46;101797.63;5054823;28;45315;-86
2021/09/07 03:04:14;;;;;;;;;16.67;14.67;;;;;22.31;48.90;101774.66;5033034;28;45323;-87
2021/09/07 03:06:39;;;;;;;;;16.00;13.00;;;;;22.39;49.20;101781.66;5028532;28;45844;-89
2021/09/07 03:09:05;;;;;;;;;13.00;13.00;;;;;22.37;49.29;101787.06;5043519;28;45307;-92
2021/09/07 03:11:31;;;;;;;;;14.00;13.67;;;;;22.41;49.27;101793.25;5050133;28;45278;-95
2021/09/07 03:13:57;;;;;;;;;12.33;11.67;;;;;22.35;49.00;101785.31;5031561;28;45771;-94
2021/09/07 03:16:22;;;;;;;;;13.33;13.33;;;;;22.39;49.37;101790.59;5049524;28;45340;-96
2021/09/07 03:18:48;;;;;;;;;15.33;13.00;;;;;22.30;48.67;101770.19;5045865;28;45202;-95
2021/09/07 03:21:13;;;;;;;;;15.00;14.00;;;;;22.38;49.30;101782.59;5050175;28;44721;-91
2021/09/07 03:23:39;;;;;;;;;11.33;9.33;;;;;22.26;49.11;101770.25;5050039;28;45266;-96
2021/09/07 03:26:04;;;;;;;;;10.00;10.00;;;;;22.32;49.53;101771.06;5049548;28;45278;-95
2021/09/07 03:28:29;;;;;;;;;15.67;12.33;;;;;22.31;50.03;101771.97;5048996;28;45259;-95
2021/09/07 03:30:55;;;;;;;;;13.00;13.00;;;;;22.34;49.59;101771.03;5051390;28;45308;-94
2021/09/07 03:33:21;;;;;;;;;11.00;7.00;;;;;22.36;49.48;101779.91;5049918;28;46246;-94
2021/09/07 03:35:46;;;;;;;;;12.00;11.00;;;;;22.37;49.49;101779.03;5049113;28;45249;-96
2021/09/07 03:38:12;;;;;;;;;10.00;10.00;;;;;22.30;49.36;101775.53;5032311;28;45353;-94
2021/09/07 03:40:38;;;;;;;;;13.67;9.00;;;;;22.35;49.39;101785.31;5049913;28;45526;-94
2021/09/07 03:43:04;;;;;;;;;14.67;11.67;;;;;22.23;49.02;101759.59;5018124;28;47447;-92
2021/09/07 03:45:29;;;;;;;;;13.00;13.00;;;;;22.23;49.58;101765.81;5058911;28;44726;-90
2021/09/07 03:47:55;;;;;;;;;11.00;10.00;;;;;22.26;49.70;101771.16;5041298;28;45270;-93
2021/09/07 03:50:20;;;;;;;;;12.33;12.33;;;;;22.23;49.62;101768.50;5061385;28;44697;-90
2021/09/07 03:52:46;;;;;;;;;11.67;11.00;;;;;22.27;48.98;101775.56;5061984;28;46165;-88
2021/09/07 03:55:12;;;;;;;;;14.33;11.33;;;;;22.28;49.61;101774.69;5038705;28;45269;-96
2021/09/07 03:57:38;;;;;;;;;15.00;11.33;;;;;22.21;49.67;101770.31;5046722;28;45226;-96
2021/09/07 04:00:07;;;;;;;;;14.00;12.00;;;;;22.18;49.80;101757.88;5044854;28;45291;-96
2021/09/07 04:02:32;;;;;;;;;11.33;10.33;;;;;22.17;49.54;101752.53;5044097;28;45472;-96
2021/09/07 04:04:58;;;;;;;;;14.33;12.33;;;;;22.26;49.57;101772.94;5048866;28;45300;-93
2021/09/07 04:07:23;;;;;;;;;13.67;12.00;;;;;22.17;49.97;101760.56;5028693;28;45229;-94
2021/09/07 04:09:49;;;;;;;;;12.33;11.67;;;;;22.19;50.04;101756.97;5033450;28;44873;-91
2021/09/07 04:12:15;;;;;;;;;12.67;12.33;;;;;22.14;49.88;101744.56;5036995;28;45368;-96
2021/09/07 04:14:41;;;;;;;;;13.00;11.67;;;;;22.05;49.82;101741.13;5043925;28;45222;-95
2021/09/07 04:17:06;;;;;;;;;15.67;12.67;;;;;22.13;49.75;101753.47;5044760;28;45190;-94
2021/09/07 04:19:33;;;;;;;;;16.67;13.00;;;;;22.20;50.29;101771.25;5046420;28;45546;-95
2021/09/07 04:21:59;;;;;;;;;12.00;12.00;;;;;22.18;50.20;101775.72;5009800;28;46235;-96
2021/09/07 04:24:25;;;;;;;;;12.00;12.00;;;;;22.14;49.99;101772.22;5044210;28;45484;-94
2021/09/07 04:26:53;;;;;;;;;12.67;12.67;;;;;22.17;49.78;101781.97;5029419;28;45430;-95
2021/09/07 04:29:19;;;;;;;;;13.67;11.00;;;;;22.12;50.11;101779.41;5014320;28;45467;-92
2021/09/07 04:31:44;;;;;;;;;12.00;11.00;;;;;22.09;50.30;101780.31;5047993;28;45500;-94
2021/09/07 04:34:10;;;;;;;;;18.00;13.00;;;;;22.06;50.35;101782.16;5031136;28;45333;-93
2021/09/07 04:36:35;;;;;;;;;14.33;13.00;;;;;22.03;50.00;101787.53;5048837;28;45335;-93
2021/09/07 04:39:01;;;;;;;;;13.33;13.33;;;;;22.07;50.46;101806.22;5047579;28;45234;-89
2021/09/07 04:41:28;;;;;;;;;13.00;12.00;;;;;22.04;50.04;101797.38;5029312;28;47828;-90
2021/09/07 04:43:53;;;;;;;;;15.00;13.00;;;;;22.03;50.30;101793.78;5048206;28;45296;-93
2021/09/07 04:46:18;;;;;;;;;17.00;13.00;;;;;22.03;49.92;101803.59;5046097;28;45302;-92
2021/09/07 04:48:46;;;;;;;;;12.67;12.00;;;;;21.97;50.30;101796.56;5043651;28;45264;-91
2021/09/07 04:51:11;;;;;;;;;11.33;10.33;;;;;21.91;50.59;101786.81;5041263;28;46896;-94
2021/09/07 04:53:37;;;;;;;;;13.67;13.67;;;;;21.89;50.30;101779.72;5023211;28;45411;-91
2021/09/07 04:56:02;;;;;;;;;14.33;13.67;;;;;21.91;51.00;101794.84;5042440;28;45296;-87
2021/09/07 04:58:28;;;;;;;;;12.00;10.67;;;;;21.81;50.71;101780.66;5027179;28;45362;-90
2021/09/07 05:00:53;;;;;;;;;15.67;13.33;;;;;21.88;50.87;101785.97;5043448;28;45477;-86
2021/09/07 05:03:19;;;;;;;;;17.33;14.33;;;;;21.92;50.86;101798.41;5043457;28;45319;-88
2021/09/07 05:05:44;;;;;;;;;17.33;13.00;;;;;21.87;50.59;101790.44;5042384;28;45443;-90
2021/09/07 05:08:10;;;;;;;;;14.00;14.00;;;;;21.88;50.72;101796.66;5022833;28;45226;-86
2021/09/07 05:10:36;;;;;;;;;18.00;17.00;;;;;21.86;50.98;101800.25;5022306;28;47117;-90
2021/09/07 05:13:02;;;;;;;;;18.67;15.33;;;;;21.73;51.23;101782.56;5040083;28;45295;-88
2021/09/07 05:15:27;;;;;;;;;14.33;12.33;;;;;21.86;51.03;101805.63;5043413;28;45736;-87
2021/09/07 05:17:53;;;;;;;;;17.00;16.67;;;;;21.82;51.30;101802.97;5049152;28;45189;-87
2021/09/07 05:20:19;;;;;;;;;15.67;14.00;;;;;21.70;51.09;101782.59;5042710;28;46891;-89
2021/09/07 05:22:45;;;;;;;;;15.33;15.33;;;;;21.75;51.06;101789.66;5063655;28;45254;-88
2021/09/07 05:25:11;;;;;;;;;16.00;16.00;;;;;21.68;51.05;101779.06;5061354;28;44813;-93
2021/09/07 05:27:37;;;;;;;;;17.67;16.00;;;;;21.74;51.02;101795.03;5052528;28;44759;-95
2021/09/07 05:30:05;;;;;;;;;15.00;14.00;;;;;21.69;51.33;101796.88;5025494;28;47174;-95
2021/09/07 05:32:30;;;;;;;;;13.33;12.33;;;;;21.71;50.95;101801.31;5043408;28;45208;-95
2021/09/07 05:34:57;;;;;;;;;18.00;15.00;;;;;21.75;51.49;101813.75;5045254;28;45320;-95
2021/09/07 05:37:23;;;;;;;;;17.00;14.67;;;;;21.74;51.49;101811.97;5046463;28;44741;-95
2021/09/07 05:39:48;;;;;;;;;20.33;17.67;;;;;21.72;51.60;101808.41;5041966;28;46331;-91
2021/09/07 05:42:17;;;;;;;;;21.33;15.67;;;;;21.70;51.58;101814.72;5041382;28;45229;-93
2021/09/07 05:44:42;;;;;;;;;19.33;12.33;;;;;21.63;51.98;101809.44;5041743;28;45376;-88
2021/09/07 05:47:08;;;;;;;;;19.33;15.00;;;;;21.67;51.64;101814.75;5041880;28;45376;-92
2021/09/07 05:49:34;;;;;;;;;21.00;16.67;;;;;21.70;51.96;101825.41;5041968;28;45471;-93
2021/09/07 05:52:01;;;;;;;;;15.67;15.33;;;;;21.64;51.69;101811.19;5045803;28;45336;-90
2021/09/07 05:54:26;;;;;;;;;20.67;17.67;;;;;21.69;51.42;101823.63;5055140;28;45218;-93
2021/09/07 05:56:54;;;;;;;;;18.67;16.33;;;;;21.69;51.81;101823.63;5051016;28;45434;-94
2021/09/07 05:59:19;;;;;;;;;17.67;14.00;;;;;21.61;52.11;101815.72;5044218;28;45479;-84
2021/09/07 06:01:44;;;;;;;;;18.67;17.33;;;;;21.58;51.51;101805.91;5046489;28;45301;-85
2021/09/07 06:04:10;;;;;;;;;17.00;15.00;;;;;21.67;51.58;101812.94;5051726;28;45449;-84
2021/09/07 06:06:35;;;;;;;;;21.33;19.33;;;;;21.67;51.68;101820.09;5048914;28;45435;-83
2021/09/07 06:09:01;;;;;;;;;23.67;19.33;;;;;21.64;51.59;101818.31;5050645;28;46000;-84
2021/09/07 06:11:27;;;;;;;;;20.33;17.00;;;;;21.61;51.54;101813.91;5047892;28;45382;-84
2021/09/07 06:13:53;;;;;;;;;18.00;17.00;;;;;21.63;51.61;101814.78;5041506;28;45332;-85
2021/09/07 06:16:18;;;;;;;;;21.00;19.00;;;;;21.68;51.20;101821.88;5041032;28;45376;-85
2021/09/07 06:18:44;;;;;;;;;22.67;18.67;;;;;21.64;51.52;101811.19;5042887;28;45324;-85
2021/09/07 06:21:09;;;;;;;;;20.67;17.00;;;;;21.66;51.51;101812.97;5040669;28;45454;-82
2021/09/07 06:23:34;;;;;;;;;22.67;17.33;;;;;21.66;51.70;101813.84;5039994;28;45787;-85
2021/09/07 06:26:00;;;;;;;;;26.33;18.33;;;;;21.67;51.84;101810.28;5039747;28;45372;-84
2021/09/07 06:28:26;;;;;;;;;20.00;17.67;;;;;21.66;51.97;101808.50;5039318;28;46206;-84
2021/09/07 06:30:52;;;;;;;;;17.67;17.00;;;;;21.70;51.90;101823.59;5039459;28;45376;-84
2021/09/07 06:33:17;;;;;;;;;16.67;16.67;;;;;21.72;52.01;101826.28;5039685;28;45277;-84
2021/09/07 06:35:43;;;;;;;;;19.00;17.00;;;;;21.73;51.29;101820.91;5039535;28;45545;-84
2021/09/07 06:38:08;;;;;;;;;22.67;18.33;;;;;21.69;51.77;101815.59;5039791;28;45377;-90
2021/09/07 06:40:34;;;;;;;;;21.67;18.67;;;;;21.70;51.54;101814.72;5022380;28;45553;-88
2021/09/07 06:42:59;;;;;;;;;19.33;16.67;;;;;21.71;51.49;101805.75;5039830;28;45291;-87
2021/09/07 06:45:25;;;;;;;;;17.00;16.33;;;;;21.73;52.05;101818.22;5040091;28;45213;-87
2021/09/07 06:47:50;;;;;;;;;19.33;16.33;;;;;21.70;52.02;101817.38;5039410;28;45565;-88
2021/09/07 06:50:16;;;;;;;;;19.33;17.00;;;;;21.62;52.13;101802.31;5039392;28;45438;-88
2021/09/07 06:52:41;;;;;;;;;21.67;18.67;;;;;21.75;51.99;101828.91;5039614;28;45371;-88
2021/09/07 06:55:07;;;;;;;;;21.67;18.00;;;;;21.63;52.21;101798.75;5018307;28;45403;-88
2021/09/07 06:57:33;;;;;;;;;17.67;17.33;;;;;21.75;52.35;101823.56;5018359;28;47056;-86
2021/09/07 06:59:58;;;;;;;;;19.00;17.00;;;;;21.77;52.90;101827.09;5018960;28;45534;-87
2021/09/07 07:02:24;;;;;;;;;21.33;17.33;;;;;21.74;52.45;101821.81;5019767;28;45313;-87
2021/09/07 07:04:49;;;;;;;;;20.00;20.00;;;;;21.67;52.33;101806.72;5018741;28;45426;-87
2021/09/07 07:07:15;;;;;;;;;17.67;16.67;;;;;21.77;52.08;101826.19;5019635;28;46261;-88
2021/09/07 07:09:40;;;;;;;;;21.67;21.00;;;;;21.80;52.06;101835.09;5019385;28;45313;-88
2021/09/07 07:12:06;;;;;;;;;17.67;17.00;;;;;21.78;52.67;101825.31;5019170;28;45289;-88
2021/09/07 07:14:32;;;;;;;;;22.33;20.00;;;;;21.79;52.11;101824.41;5019916;28;45430;-89
2021/09/07 07:16:57;;;;;;;;;20.00;17.33;;;;;21.87;51.63;101833.28;5017682;28;47196;-89
2021/09/07 07:19:23;;;;;;;;;23.67;19.00;;;;;21.77;52.35;101824.41;5015727;28;45408;-86
2021/09/07 07:21:49;;;;;;;;;19.00;16.67;;;;;21.86;52.36;101837.75;5019169;28;45349;-87
2021/09/07 07:24:16;;;;;;;;;16.67;16.00;;;;;21.92;52.31;101839.44;5019632;28;45281;-90
2021/09/07 07:26:43;;;;;;;;;17.67;17.67;;;;;21.89;51.96;101838.59;5020299;28;45701;-88
2021/09/07 07:29:08;;;;;;;;;19.00;18.00;;;;;21.90;52.03;101829.66;5002761;28;45381;-90
2021/09/07 07:31:34;;;;;;;;;20.00;17.33;;;;;21.91;51.30;101826.09;5001707;28;45302;-88
2021/09/07 07:34:01;;;;;;;;;21.00;17.33;;;;;21.91;51.83;101835.00;5020240;28;45345;-89
2021/09/07 07:36:27;;;;;;;;;20.33;18.67;;;;;21.92;51.97;101826.06;5019487;28;46387;-89
2021/09/07 07:38:52;;;;;;;;;18.67;16.67;;;;;22.05;51.73;101847.31;5020747;28;45245;-88
2021/09/07 07:41:18;;;;;;;;;20.67;17.67;;;;;22.07;51.88;101843.72;5020615;28;45217;-87
2021/09/07 07:43:47;;;;;;;;;17.33;16.33;;;;;22.09;51.58;101846.34;5022359;28;45328;-88
2021/09/07 07:46:15;;;;;;;;;17.33;15.00;;;;;22.06;52.12;101836.56;5020591;28;45599;-87
2021/09/07 07:48:41;;;;;;;;;15.67;12.00;;;;;22.02;51.98;101832.16;5019820;28;45321;-88
2021/09/07 07:51:07;;;;;;;;;17.33;16.00;;;;;22.15;51.32;101848.97;5017874;28;45344;-89
2021/09/07 07:53:33;;;;;;;;;16.00;15.33;;;;;22.17;51.05;101851.59;5021518;28;45133;-89
2021/09/07 07:55:59;;;;;;;;;14.00;14.00;;;;;22.18;51.12;101842.69;5019573;28;45302;-89
2021/09/07 07:58:24;;;;;;;;;19.00;19.00;;;;;22.12;50.99;101832.94;5019511;28;45289;-89
2021/09/07 08:00:50;;;;;;;;;19.33;16.67;;;;;22.10;51.35;101824.06;5018077;28;45248;-88
2021/09/07 08:03:15;;;;;;;;;15.33;15.00;;;;;22.15;51.65;101824.84;5018290;28;45495;-88
2021/09/07 08:05:40;;;;;;;;;20.33;14.33;;;;;22.26;51.86;101840.78;5019402;28;45924;-88
2021/09/07 08:08:07;;;;;;;;;15.67;15.00;;;;;22.18;51.47;101829.28;5019686;28;45379;-90
2021/09/07 08:10:33;;;;;;;;;14.67;13.33;;;;;22.32;51.45;101856.75;5010303;28;45400;-88
2021/09/07 08:12:58;;;;;;;;;18.67;16.67;;;;;22.31;51.98;101841.63;5017859;28;45415;-89
2021/09/07 08:15:24;;;;;;;;;20.33;16.00;;;;;22.31;52.02;101843.41;5017163;28;48439;-88
2021/09/07 08:17:50;;;;;;;;;21.33;18.33;;;;;22.35;51.73;101841.56;5018645;28;45534;-89
2021/09/07 08:20:16;;;;;;;;;20.67;17.67;;;;;22.35;51.95;101838.88;5018765;28;45340;-88
2021/09/07 08:22:41;;;;;;;;;17.33;14.33;;;;;22.33;52.03;101837.13;5018910;28;45275;-88
2021/09/07 08:25:08;;;;;;;;;15.00;13.33;;;;;22.43;52.43;101847.69;5016601;28;47490;-88
2021/09/07 08:27:33;;;;;;;;;16.33;15.00;;;;;22.46;52.44;101847.66;5018261;28;45328;-88
2021/09/07 08:29:58;;;;;;;;;17.33;14.00;;;;;22.36;51.82;101827.25;5017387;28;45325;-87
2021/09/07 08:32:24;;;;;;;;;20.33;16.00;;;;;22.41;52.23;101838.78;5018534;28;45385;-88
2021/09/07 08:34:49;;;;;;;;;16.00;14.00;;;;;22.51;52.10;101851.13;5018227;28;46434;-87
2021/09/07 08:37:15;;;;;;;;;13.67;13.67;;;;;22.47;52.23;101843.16;5017955;28;45343;-88
2021/09/07 08:39:40;;;;;;;;;15.67;13.67;;;;;22.50;51.61;101838.66;5006319;28;45779;-88
2021/09/07 08:42:11;;;;;;;;;17.33;13.00;;;;;22.56;52.06;101838.56;5000653;28;45271;-88
2021/09/07 08:44:37;;;;;;;;;20.00;14.67;;;;;22.50;52.21;101827.94;5013220;28;47174;-88
2021/09/07 08:47:03;;;;;;;;;13.67;13.00;;;;;22.59;52.39;101837.59;5000243;28;45222;-88
2021/09/07 08:49:28;;;;;;;;;9.33;9.33;;;;;22.60;52.16;101833.13;5018081;28;45218;-87
2021/09/07 08:51:54;;;;;;;;;13.67;13.33;;;;;22.67;52.50;101840.22;5017509;28;45214;-88
2021/09/07 08:54:19;;;;;;;;;14.00;12.00;;;;;22.74;52.02;101847.22;5016337;28;46233;-89
2021/09/07 08:56:45;;;;;;;;;14.67;12.33;;;;;22.76;51.84;101848.09;5018052;28;45467;-88
2021/09/07 08:59:12;;;;;;;;;14.33;12.67;;;;;22.78;51.92;101848.94;5013022;28;45907;-88
2021/09/07 09:01:39;;;;;;;;;15.67;14.33;;;;;22.89;51.71;101848.78;5018645;28;45299;-88
2021/09/07 09:04:05;;;;;;;;;19.67;16.00;;;;;22.92;50.80;101839.81;5017803;28;46138;-88
2021/09/07 09:06:30;;;;;;;;;15.67;14.00;;;;;22.99;50.31;101836.09;5018193;28;45228;-88
2021/09/07 09:09:07;;;;;;;;;13.00;13.00;;;;;23.19;50.83;101850.97;5018022;28;45242;-87
2021/09/07 09:11:54;;;;;;;;;15.67;14.00;;;;;23.48;50.25;101857.59;5017101;28;45598;-87
2021/09/07 09:14:36;;;;;;;;;14.33;13.67;;;;;23.75;48.54;101853.53;5017986;28;46211;-88
2021/09/07 09:17:31;;;;;;;;;15.67;14.33;;;;;24.10;49.60;101857.25;5017693;28;45239;-87
2021/09/07 09:20:01;;;;;;;;;15.67;13.67;;;;;24.52;48.82;101852.78;5016757;28;45379;-86
2021/09/07 09:22:40;;;;;;;;;18.33;14.33;;;;;24.96;48.28;101860.69;5017650;28;45351;-87
2021/09/07 09:25:27;;;;;;;;;15.00;14.00;;;;;25.33;48.45;101845.41;5017655;28;45651;-88
2021/09/07 09:27:55;;;;;;;;;18.33;15.67;;;;;25.80;47.29;101859.41;5016198;28;45375;-87
2021/09/07 09:30:29;;;;;;;;;14.33;14.33;;;;;26.16;46.57;101858.34;5016279;28;45410;-87
2021/09/07 09:32:54;;;;;;;;;14.00;13.67;;;;;26.59;45.86;101866.88;5016016;28;45247;-88
2021/09/07 09:35:21;;;;;;;;;10.67;9.33;;;;;26.88;45.60;101847.09;5016007;28;46956;-86
2021/09/07 09:37:56;;;;;;;;;17.00;15.33;;;;;27.25;44.74;101848.53;5018100;28;45399;-87
2021/09/07 09:40:24;;;;;;;;;14.67;14.33;;;;;27.68;44.01;101855.13;5025058;28;45368;-86
2021/09/07 09:42:50;;;;;;;;;14.67;13.67;;;;;28.03;41.51;101852.91;5030883;28;44821;-87
2021/09/07 09:45:17;;;;;;;;;16.00;13.00;;;;;28.30;42.17;101836.53;5021972;28;46991;-88
2021/09/07 09:47:43;;;;;;;;;14.67;14.67;;;;;28.66;41.48;101836.94;5016966;28;45182;-88
2021/09/07 09:50:13;;;;;;;;;14.00;12.67;;;;;29.04;40.15;101830.88;5016921;28;45492;-88
2021/09/07 09:52:43;;;;;;;;;17.33;12.33;;;;;29.29;39.99;101824.34;5017499;28;45512;-87
2021/09/07 09:55:11;;;;;;;;;16.33;13.00;;;;;29.66;38.58;101826.31;4992586;28;47206;-87
2021/09/07 09:57:38;;;;;;;;;14.33;13.00;;;;;29.96;38.70;101833.97;4997140;28;45328;-87
2021/09/07 10:00:07;;;;;;;;;13.00;12.33;;;;;30.16;38.27;101816.72;5000604;28;45367;-87
2021/09/07 10:02:32;;;;;;;;;13.67;13.00;;;;;30.52;38.04;101830.41;4999867;28;45611;-86
2021/09/07 10:05:02;;;;;;;;;15.00;13.33;;;;;30.79;37.40;101821.81;4999628;28;46383;-87
2021/09/07 10:07:27;;;;;;;;;14.33;12.67;;;;;31.01;37.26;101822.56;5001065;28;45384;-88
2021/09/07 10:09:57;;;;;;;;;13.33;13.33;;;;;31.27;37.72;101817.56;4998298;28;45430;-86
2021/09/07 10:12:30;;;;;;;;;14.33;13.67;;;;;31.55;36.42;101816.09;4997352;28;45331;-87
2021/09/07 10:15:08;;;;;;;;;15.67;14.00;;;;;31.74;35.92;101804.19;4996737;28;46295;-88
2021/09/07 10:17:40;;;;;;;;;13.33;12.67;;;;;32.10;34.89;101813.97;4996924;28;45369;-86
2021/09/07 10:20:23;;;;;;;;;12.67;12.67;;;;;32.36;34.99;101805.28;4996882;28;45418;-86
2021/09/07 10:23:49;;;;;;;;;15.00;12.00;;;;;32.63;34.78;101801.91;4995473;28;45579;-87
2021/09/07 10:25:52;;;;;;;;;13.67;13.00;;;;;32.92;34.70;101791.06;4981243;28;45376;-86
2021/09/07 10:28:33;;;;;;;;;15.00;14.33;;;;;33.35;34.66;101803.00;4995144;28;46141;-86
2021/09/07 10:31:02;;;;;;;;;12.67;12.67;;;;;33.88;33.35;101787.00;4997175;28;45262;-88
2021/09/07 10:33:31;;;;;;;;;16.00;15.33;;;;;34.72;33.54;101792.31;4997318;28;45411;-88
2021/09/07 10:36:24;;;;;;;;;15.33;13.33;;;;;35.90;31.92;101789.53;4996572;28;45416;-87
2021/09/07 10:38:52;;;;;;;;;14.00;14.00;;;;;36.81;30.91;101786.31;4996848;28;45369;-89
2021/09/07 10:41:29;;;;;;;;;13.00;13.00;;;;;37.67;29.66;101781.41;4999620;28;45265;-88
2021/09/07 10:43:58;;;;;;;;;14.33;14.00;;;;;38.34;29.05;101788.69;4998416;28;45515;-88
2021/09/07 10:46:43;;;;;;;;;15.00;14.67;;;;;39.01;27.76;101773.81;4999506;28;46374;-88
2021/09/07 10:49:23;;;;;;;;;14.33;12.67;;;;;39.57;25.81;101784.47;4999867;28;45357;-88
2021/09/07 10:52:10;;;;;;;;;14.33;12.67;;;;;40.10;26.05;101776.03;5000012;28;45396;-88
2021/09/07 10:55:09;;;;;;;;;14.00;13.00;;;;;40.53;25.77;101766.47;5015353;28;45422;-86
2021/09/07 10:57:38;;;;;;;;;12.33;12.33;;;;;40.96;24.50;101759.69;5019529;28;46258;-88
2021/09/07 11:00:18;;;;;;;;;13.00;10.33;;;;;41.38;24.79;101755.59;5019557;28;45256;-88
2021/09/07 11:02:54;;;;;;;;;16.00;13.67;;;;;41.75;24.01;101750.19;5023495;28;45338;-88
2021/09/07 11:05:28;;;;;;;;;12.67;12.67;;;;;42.07;22.84;101757.06;5023617;28;44779;-89
2021/09/07 11:08:08;;;;;;;;;16.33;12.67;;;;;42.36;22.76;101746.75;5021658;28;46190;-88
2021/09/07 11:10:44;;;;;;;;;11.33;11.33;;;;;42.62;23.14;101739.53;5019335;28;45348;-88